Darstellungsparameter: Aktuell verwendete Einstellungen:
Skalierung der Graphiken ... ?
xyx+y,   Skalierungsfaktor:      Skalierung: Modus: x, Faktor: 1
Darstellungszeitraum ... ?
Vom - - bis: - -   Zeitraum: 30.05.2015 - 05.06.2015
Min/Max/Avg-Anzeige ... ?
Zeige MMA aktuell
Zeige MMA Monat
Zeige MMA alles
Zeige --A aktuell
Zeige --A Monat
Zeige --A alles
Keine MMA-Anzeige
MMA:
Average (ber die Originaldaten)
MMA-Basis: 30.05.2015 - 05.06.2015
Quicknavigation für Darstellung... ?
Tage:      1T, 2T, 3T, 5T -1T -2T -3T -5T +1T +2T +3T +5T
Wochen: 1W, 2W, 3W -1W -2W -3W +1W +2W +3W
Monate: 1M, 3M, 6M -1M -3M -6M +1M +3M +6M
Jahre:    1J, 3J, 5J, 10J -1J -3J -5J -10J +1J +3J +5J +10J
Nutze für die Darstellung ... ?
Originaldaten oder ...
Mittelwerte Minima Maxima auf...
Stundenbasis Tagesbasis Wochenbasis
Monatsbasis Jahresbasis      Datenbasis: Mittelwerte auf Stundenbasis
Darstellen als:
Statistik (Auto) Statistik J:M      Darstellung:
Zur Graphik,    zurück zur Übersicht aller Sensoren.
 
Tabellarische Datenbersicht: ?
 
Sensor: Nr:Datum:Temp:Abs-Feuchte:Windchill:Wind:
Aussen-T/F 1 30-05-2015 00:00:00 13.225 C 8.57 g/m*3 13.23 C 1.2 km/h
2 30-05-2015 01:00:00 12.20833 C 8.72 g/m*3 12.21 C 8.30833 km/h
3 30-05-2015 02:00:00 9.88333 C 8.5 g/m*3 9.88 C 2.26667 km/h
4 30-05-2015 03:00:00 9.40833 C 8.32 g/m*3 9.41 C 2.26667 km/h
5 30-05-2015 04:00:00 9.125 C 8.19 g/m*3 9.13 C 2.4 km/h
6 30-05-2015 05:00:00 9.025 C 8.01 g/m*3 9.03 C 2.13333 km/h
7 30-05-2015 06:00:00 8.46667 C 7.92 g/m*3 8.47 C 0.4 km/h
8 30-05-2015 07:00:00 8.94167 C 8.13 g/m*3 8.94 C 4.41667 km/h
9 30-05-2015 08:00:00 11.15833 C 8.5 g/m*3 11.16 C 5.75833 km/h
10 30-05-2015 09:00:00 12.14167 C 8.15 g/m*3 12.14 C 10.60833 km/h
11 30-05-2015 10:00:00 13.21667 C 7.67 g/m*3 13.22 C 12.625 km/h
12 30-05-2015 11:00:00 14.4 C 7.47 g/m*3 14.4 C 14.63333 km/h
13 30-05-2015 12:00:00 15.40833 C 6.88 g/m*3 15.41 C 15.56667 km/h
14 30-05-2015 13:00:00 16.225 C 6.74 g/m*3 16.23 C 15.56667 km/h
15 30-05-2015 14:00:00 16.8 C 6.45 g/m*3 16.8 C 15.3 km/h
16 30-05-2015 15:00:00 17.31667 C 6.93 g/m*3 17.32 C 15.43333 km/h
17 30-05-2015 16:00:00 16.34167 C 6.43 g/m*3 16.34 C 13.15 km/h
18 30-05-2015 17:00:00 16.525 C 7.09 g/m*3 16.52 C 10.625 km/h
19 30-05-2015 18:00:00 15.29167 C 7.62 g/m*3 15.29 C 6.425 km/h
20 30-05-2015 19:00:00 14.80833 C 7.64 g/m*3 14.81 C 6.16667 km/h
21 30-05-2015 20:00:00 14.11667 C 7.82 g/m*3 14.12 C 2.93333 km/h
22 30-05-2015 21:00:00 11.16667 C 7.74 g/m*3 11.17 C 0.53333 km/h
23 30-05-2015 22:00:00 10 C 7.62 g/m*3 10 C 0 km/h
24 30-05-2015 23:00:00 8.71667 C 7.36 g/m*3 8.72 C 0 km/h
25 31-05-2015 00:00:00 7.86667 C 7.22 g/m*3 7.87 C 0 km/h
Sensor: Nr:Datum:Temp:Abs-Feuchte:Windchill:Wind:
Aussen-T/F 26 31-05-2015 01:00:00 7.325 C 7.1 g/m*3 7.33 C 0 km/h
27 31-05-2015 02:00:00 6.98333 C 7.09 g/m*3 6.98 C 0.26667 km/h
28 31-05-2015 03:00:00 6.69167 C 7.01 g/m*3 6.69 C 0 km/h
29 31-05-2015 04:00:00 6.51667 C 6.98 g/m*3 6.52 C 0 km/h
30 31-05-2015 05:00:00 6.33333 C 6.9 g/m*3 6.33 C 0.4 km/h
31 31-05-2015 06:00:00 6.31667 C 6.94 g/m*3 6.32 C 0.13333 km/h
32 31-05-2015 07:00:00 7.85833 C 7.5 g/m*3 7.86 C 1.6 km/h
33 31-05-2015 08:00:00 9.925 C 7.92 g/m*3 9.93 C 4.14167 km/h
34 31-05-2015 09:00:00 12.24167 C 8.7 g/m*3 12.24 C 5.48333 km/h
35 31-05-2015 10:00:00 16.06667 C 9.29 g/m*3 16.07 C 7.39167 km/h
36 31-05-2015 11:00:00 18.3 C 9.26 g/m*3 18.3 C 7.38333 km/h
37 31-05-2015 12:00:00 20.13333 C 9.3 g/m*3 20.13 C 13.83333 km/h
38 31-05-2015 13:00:00 20.65 C 9.62 g/m*3 20.65 C 12.36667 km/h
39 31-05-2015 14:00:00 21.25833 C 9.89 g/m*3 21.26 C 12.36667 km/h
40 31-05-2015 15:00:00 21.9 C 10.24 g/m*3 21.9 C 10.875 km/h
41 31-05-2015 16:00:00 21.725 C 9.98 g/m*3 21.73 C 14.23333 km/h
42 31-05-2015 17:00:00 20.65833 C 9.76 g/m*3 20.66 C 11.15833 km/h
43 31-05-2015 18:00:00 20.25 C 10.02 g/m*3 20.25 C 11.68333 km/h
44 31-05-2015 19:00:00 19.29167 C 10.33 g/m*3 19.29 C 18.65 km/h
45 31-05-2015 20:00:00 18.125 C 10.91 g/m*3 18.13 C 19.70833 km/h
46 31-05-2015 21:00:00 17.53333 C 11.1 g/m*3 17.53 C 15.16667 km/h
47 31-05-2015 22:00:00 17.24167 C 11.23 g/m*3 17.24 C 11.15 km/h
48 31-05-2015 23:00:00 17.025 C 11.22 g/m*3 17.02 C 14.76667 km/h
49 01-06-2015 00:00:00 16.575 C 11.44 g/m*3 16.58 C 13.96667 km/h
50 01-06-2015 01:00:00 16.05 C 11.72 g/m*3 16.05 C 16.1 km/h
Sensor: Nr:Datum:Temp:Abs-Feuchte:Windchill:Wind:
Aussen-T/F 51 01-06-2015 02:00:00 16.10833 C 11.85 g/m*3 16.11 C 13.56667 km/h
52 01-06-2015 03:00:00 15.05 C 11.55 g/m*3 15.05 C 7.66667 km/h
53 01-06-2015 04:00:00 13.04167 C 10.56 g/m*3 13.04 C 0.53333 km/h
54 01-06-2015 05:00:00 12.35 C 10.26 g/m*3 12.35 C 0 km/h
55 01-06-2015 06:00:00 12.225 C 10.27 g/m*3 12.23 C 0 km/h
56 01-06-2015 07:00:00 12.05833 C 10.12 g/m*3 12.06 C 2.675 km/h
57 01-06-2015 08:00:00 11.38333 C 9.62 g/m*3 11.38 C 2.13333 km/h
58 01-06-2015 09:00:00 12.125 C 9.71 g/m*3 12.13 C 2.4 km/h
59 01-06-2015 10:00:00 12.725 C 9.83 g/m*3 12.73 C 0.93333 km/h
60 01-06-2015 11:00:00 13.48333 C 9.91 g/m*3 13.48 C 1.33333 km/h
61 01-06-2015 12:00:00 14.55833 C 9.8 g/m*3 14.56 C 0.4 km/h
62 01-06-2015 13:00:00 15.325 C 9.78 g/m*3 15.33 C 3.73333 km/h
63 01-06-2015 14:00:00 16.525 C 9.72 g/m*3 16.52 C 6.025 km/h
64 01-06-2015 15:00:00 17.54167 C 9.83 g/m*3 17.54 C 6.45833 km/h
65 01-06-2015 16:00:00 18.36667 C 9.73 g/m*3 18.37 C 5.20833 km/h
66 01-06-2015 17:00:00 18.375 C 9.62 g/m*3 18.38 C 2.93333 km/h
67 01-06-2015 18:00:00 18.425 C 10.13 g/m*3 18.43 C 3.74167 km/h
68 01-06-2015 19:00:00 18.775 C 9.11 g/m*3 18.77 C 10.21667 km/h
69 01-06-2015 20:00:00 17.09167 C 9.03 g/m*3 17.09 C 3.74167 km/h
70 01-06-2015 21:00:00 14.29167 C 8.9 g/m*3 14.29 C 2.26667 km/h
71 01-06-2015 22:00:00 12.58333 C 8.67 g/m*3 12.58 C 2 km/h
72 01-06-2015 23:00:00 11.76667 C 8.62 g/m*3 11.77 C 0.8 km/h
73 02-06-2015 00:00:00 10.78333 C 8.52 g/m*3 10.78 C 0.53333 km/h
74 02-06-2015 01:00:00 9.54167 C 8.18 g/m*3 9.54 C 0 km/h
75 02-06-2015 02:00:00 9.1 C 8.15 g/m*3 9.1 C 0 km/h
Sensor: Nr:Datum:Temp:Abs-Feuchte:Windchill:Wind:
Aussen-T/F 76 02-06-2015 03:00:00 9.275 C 8.33 g/m*3 9.28 C 0 km/h
77 02-06-2015 04:00:00 9.78333 C 8.6 g/m*3 9.78 C 0 km/h
78 02-06-2015 05:00:00 10.275 C 8.85 g/m*3 10.28 C 0 km/h
79 02-06-2015 06:00:00 10.91667 C 9.19 g/m*3 10.92 C 0 km/h
80 02-06-2015 07:00:00 11.43333 C 9.51 g/m*3 11.43 C 0 km/h
81 02-06-2015 08:00:00 12.35 C 10.26 g/m*3 12.35 C 0.26667 km/h
82 02-06-2015 09:00:00 12.91667 C 10.62 g/m*3 12.92 C 0.8 km/h
83 02-06-2015 10:00:00 13.38333 C 10.91 g/m*3 13.38 C 0.66667 km/h
84 02-06-2015 11:00:00 14.05833 C 11.22 g/m*3 14.06 C 2.13333 km/h
85 02-06-2015 12:00:00 15.54167 C 10.27 g/m*3 15.54 C 7.90833 km/h
86 02-06-2015 13:00:00 18.675 C 9.55 g/m*3 18.68 C 13.68333 km/h
87 02-06-2015 14:00:00 22.325 C 10.2 g/m*3 22.33 C 18.23333 km/h
88 02-06-2015 15:00:00 24.125 C 10.63 g/m*3 24.13 C 18.23333 km/h
89 02-06-2015 16:00:00 25.04167 C 10.52 g/m*3 25.04 C 20.91667 km/h
90 02-06-2015 17:00:00 25.6 C 10.02 g/m*3 25.6 C 19.325 km/h
91 02-06-2015 18:00:00 25.74167 C 9.72 g/m*3 25.74 C 19.175 km/h
92 02-06-2015 19:00:00 25.08333 C 9.94 g/m*3 25.08 C 11.54167 km/h
93 02-06-2015 20:00:00 23.61667 C 10.13 g/m*3 23.62 C 11.41667 km/h
94 02-06-2015 21:00:00 22.09167 C 10.23 g/m*3 22.09 C 8.59167 km/h
95 02-06-2015 22:00:00 19.21667 C 11.16 g/m*3 19.22 C 1.46667 km/h
96 02-06-2015 23:00:00 16.95833 C 11.19 g/m*3 16.96 C 0.4 km/h
97 03-06-2015 00:00:00 18.26667 C 11.16 g/m*3 18.27 C 2 km/h
98 03-06-2015 01:00:00 17.025 C 11.16 g/m*3 17.02 C 1.33333 km/h
99 03-06-2015 02:00:00 15.04167 C 10.73 g/m*3 15.04 C 0 km/h
100 03-06-2015 03:00:00 14.15 C 10.58 g/m*3 14.15 C 0 km/h
Sensor: Nr:Datum:Temp:Abs-Feuchte:Windchill:Wind:
Aussen-T/F 101 03-06-2015 04:00:00 13.425 C 10.33 g/m*3 13.43 C 0 km/h
102 03-06-2015 05:00:00 13.025 C 10.32 g/m*3 13.03 C 0.26667 km/h
103 03-06-2015 06:00:00 13.43333 C 10.62 g/m*3 13.43 C 0.53333 km/h
104 03-06-2015 07:00:00 15.25833 C 11.32 g/m*3 15.26 C 3.89167 km/h
105 03-06-2015 08:00:00 18.125 C 11.68 g/m*3 18.13 C 10.075 km/h
106 03-06-2015 09:00:00 18.13333 C 11.66 g/m*3 18.13 C 9.40833 km/h
107 03-06-2015 10:00:00 16.65833 C 11.32 g/m*3 16.66 C 4.8 km/h
108 03-06-2015 11:00:00 16.675 C 11.21 g/m*3 16.68 C 5.06667 km/h
109 03-06-2015 12:00:00 18.05833 C 11.64 g/m*3 18.06 C 4.53333 km/h
110 03-06-2015 13:00:00 20.325 C 11.95 g/m*3 20.33 C 8.04167 km/h
111 03-06-2015 14:00:00 22.55833 C 11.17 g/m*3 22.56 C 14.36667 km/h
112 03-06-2015 15:00:00 21.63333 C 10.18 g/m*3 21.63 C 11.96667 km/h
113 03-06-2015 16:00:00 22.425 C 10.26 g/m*3 22.43 C 9.83333 km/h
114 03-06-2015 17:00:00 23.575 C 9.95 g/m*3 23.58 C 11.43333 km/h
115 03-06-2015 18:00:00 22.04167 C 9.32 g/m*3 22.04 C 10.09167 km/h
116 03-06-2015 19:00:00 20.15833 C 9.06 g/m*3 20.16 C 10.21667 km/h
117 03-06-2015 20:00:00 19.01667 C 8.77 g/m*3 19.02 C 6.7 km/h
118 03-06-2015 21:00:00 17.49167 C 9.23 g/m*3 17.49 C 1.86667 km/h
119 03-06-2015 22:00:00 15.05 C 9.36 g/m*3 15.05 C 0.4 km/h
120 03-06-2015 23:00:00 14.44167 C 9.32 g/m*3 14.44 C 0.13333 km/h
121 04-06-2015 00:00:00 13.275 C 8.86 g/m*3 13.28 C 0 km/h
122 04-06-2015 01:00:00 11.875 C 8.64 g/m*3 11.88 C 0 km/h
123 04-06-2015 02:00:00 10.96667 C 8.5 g/m*3 10.97 C 0 km/h
124 04-06-2015 03:00:00 10.76667 C 8.63 g/m*3 10.77 C 0 km/h
125 04-06-2015 04:00:00 10.875 C 8.74 g/m*3 10.88 C 0 km/h
Sensor: Nr:Datum:Temp:Abs-Feuchte:Windchill:Wind:
Aussen-T/F 126 04-06-2015 05:00:00 10.86667 C 8.78 g/m*3 10.87 C 0 km/h
127 04-06-2015 06:00:00 10.95 C 8.91 g/m*3 10.95 C 0 km/h
128 04-06-2015 07:00:00 11.725 C 9.31 g/m*3 11.73 C 0 km/h
129 04-06-2015 08:00:00 13.50833 C 9.76 g/m*3 13.51 C 0.26667 km/h
130 04-06-2015 09:00:00 15.01667 C 10.23 g/m*3 15.02 C 1.73333 km/h
131 04-06-2015 10:00:00 19.30833 C 10.41 g/m*3 19.31 C 5.225 km/h
132 04-06-2015 11:00:00 21.53333 C 9.75 g/m*3 21.53 C 6.43333 km/h
133 04-06-2015 12:00:00 23.125 C 10.02 g/m*3 23.13 C 6.43333 km/h
134 04-06-2015 13:00:00 24.10833 C 10.05 g/m*3 24.11 C 7.675 km/h
135 04-06-2015 14:00:00 25.7 C 10.45 g/m*3 25.7 C 8.2 km/h
136 04-06-2015 15:00:00 26.08333 C 10.39 g/m*3 26.08 C 6.575 km/h
137 04-06-2015 16:00:00 27.25833 C 10.4 g/m*3 27.26 C 8.05833 km/h
138 04-06-2015 17:00:00 27.95 C 10.73 g/m*3 27.95 C 7.66667 km/h
139 04-06-2015 18:00:00 27.675 C 10.55 g/m*3 27.68 C 8.06667 km/h
140 04-06-2015 19:00:00 26.24167 C 10.24 g/m*3 26.24 C 7.11667 km/h
141 04-06-2015 20:00:00 23.48333 C 11.59 g/m*3 23.48 C 1.875 km/h
142 04-06-2015 21:00:00 19.36667 C 10.85 g/m*3 19.37 C 1.73333 km/h
143 04-06-2015 22:00:00 17.45833 C 10.52 g/m*3 17.46 C 0.66667 km/h
144 04-06-2015 23:00:00 16.05833 C 10.22 g/m*3 16.06 C 0 km/h
145 05-06-2015 00:00:00 14.78333 C 10.01 g/m*3 14.78 C 0 km/h
146 05-06-2015 01:00:00 13.76667 C 9.87 g/m*3 13.77 C 0.53333 km/h
147 05-06-2015 02:00:00 12.88333 C 9.68 g/m*3 12.88 C 0 km/h
148 05-06-2015 03:00:00 12.14167 C 9.56 g/m*3 12.14 C 0 km/h
149 05-06-2015 04:00:00 11.60833 C 9.42 g/m*3 11.61 C 0 km/h
150 05-06-2015 05:00:00 11.275 C 9.34 g/m*3 11.28 C 0 km/h
Sensor: Nr:Datum:Temp:Abs-Feuchte:Windchill:Wind:
Aussen-T/F 151 05-06-2015 06:00:00 11.30833 C 9.45 g/m*3 11.31 C 0 km/h
152 05-06-2015 07:00:00 12.025 C 9.92 g/m*3 12.03 C 0 km/h
153 05-06-2015 08:00:00 15.45 C 11.22 g/m*3 15.45 C 0 km/h
154 05-06-2015 09:00:00 17.125 C 11.91 g/m*3 17.13 C 0 km/h
155 05-06-2015 10:00:00 19.9 C 13.07 g/m*3 19.9 C 0.26667 km/h
156 05-06-2015 11:00:00 23.06667 C 14.27 g/m*3 23.07 C 2.13333 km/h
157 05-06-2015 12:00:00 27.94167 C 14.98 g/m*3 27.94 C 5.49167 km/h
158 05-06-2015 13:00:00 31.18333 C 14.89 g/m*3 31.18 C 7.65833 km/h
159 05-06-2015 14:00:00 32.775 C 14.28 g/m*3 32.78 C 6.29167 km/h
160 05-06-2015 15:00:00 33.675 C 13.96 g/m*3 33.67 C 6.825 km/h
161 05-06-2015 16:00:00 33.64167 C 14.7 g/m*3 33.64 C 4.81667 km/h
162 05-06-2015 17:00:00 34.63333 C 13.9 g/m*3 34.63 C 7.10833 km/h
163 05-06-2015 18:00:00 34.3 C 14.71 g/m*3 34.3 C 6.45 km/h
164 05-06-2015 19:00:00 30.91667 C 16.09 g/m*3 30.92 C 3.08333 km/h
165 05-06-2015 20:00:00 26.96667 C 15.58 g/m*3 26.97 C 1.46667 km/h
166 05-06-2015 21:00:00 24.08333 C 14.45 g/m*3 24.08 C 2.26667 km/h
167 05-06-2015 22:00:00 22.96667 C 14.1 g/m*3 22.97 C 0.93333 km/h
168 05-06-2015 23:00:00 22.44167 C 14.3 g/m*3 22.44 C 2.00833 km/h

Maximal/Minimal-Werte vom 30.05.2015 - 05.06.2015

Sensor Min Max Avg
Temp
(Aussen-T/F)
6.1 °C
31-05-2015  05:55:00
35.1 °C
05-06-2015  17:20:00
16.72 °C
Abs-Feuchte
(Aussen-T/F)
6.43 g/m*3
30-05-2015  16:00:00
16.09 g/m*3
05-06-2015  19:00:00
9.87 g/m*3
Windchill
(Aussen-T/F)
6.32 C
31-05-2015  06:00:00
34.63 C
05-06-2015  17:00:00
16.62 C

Die Daten stammen von einer Davis Vantage Pro 2 Wetter-Station und werden unter Linux mit der Software wview2wettercgi und aufbereitet. Alle Angaben erfolgen ohne Gewähr für ihre Vollständigkeit oder Richtigkeit.
Kontakt: Rainer Krienke krienke@uni-koblenz.de . Meine Webseiten an der Uni Koblenz oder privat.
Version: $Revision: 0.78 $